sensor_id;sensor_type;location;lat;lon;timestamp;pressure;altitude;pressure_sealevel;temperature;humidity
80976;BME280;70437;49.466;11.002;2023-07-28T00:01:16;97464.13;;;15.65;94.10
80976;BME280;70437;49.466;11.002;2023-07-28T00:03:44;97463.84;;;15.61;94.27
80976;BME280;70437;49.466;11.002;2023-07-28T00:06:13;97464.41;;;15.58;94.14
80976;BME280;70437;49.466;11.002;2023-07-28T00:08:44;97460.63;;;15.59;94.82
80976;BME280;70437;49.466;11.002;2023-07-28T00:11:14;97456.31;;;15.58;94.38
80976;BME280;70437;49.466;11.002;2023-07-28T00:13:45;97457.38;;;15.57;94.62
80976;BME280;70437;49.466;11.002;2023-07-28T00:16:13;97458.16;;;15.58;94.47
80976;BME280;70437;49.466;11.002;2023-07-28T00:18:42;97450.06;;;15.58;94.46
80976;BME280;70437;49.466;11.002;2023-07-28T00:21:09;97451.97;;;15.57;94.49
80976;BME280;70437;49.466;11.002;2023-07-28T00:23:38;97443.31;;;15.60;94.65
80976;BME280;70437;49.466;11.002;2023-07-28T00:26:06;97447.91;;;15.60;94.53
80976;BME280;70437;49.466;11.002;2023-07-28T00:28:35;97450.06;;;15.58;94.70
80976;BME280;70437;49.466;11.002;2023-07-28T00:31:03;97432.25;;;15.57;94.70
80976;BME280;70437;49.466;11.002;2023-07-28T00:33:31;97433.63;;;15.54;94.68
80976;BME280;70437;49.466;11.002;2023-07-28T00:35:59;97437.13;;;15.55;94.57
80976;BME280;70437;49.466;11.002;2023-07-28T00:38:28;97440.63;;;15.55;94.46
80976;BME280;70437;49.466;11.002;2023-07-28T00:40:57;97438.22;;;15.54;94.84
80976;BME280;70437;49.466;11.002;2023-07-28T00:43:25;97443.63;;;15.54;94.58
80976;BME280;70437;49.466;11.002;2023-07-28T00:45:53;97440.09;;;15.53;94.74
80976;BME280;70437;49.466;11.002;2023-07-28T00:48:22;97447.13;;;15.54;94.71
80976;BME280;70437;49.466;11.002;2023-07-28T00:50:50;97438.75;;;15.51;94.60
80976;BME280;70437;49.466;11.002;2023-07-28T00:53:22;97444.16;;;15.51;95.28
80976;BME280;70437;49.466;11.002;2023-07-28T00:55:52;97448.19;;;15.53;95.00
80976;BME280;70437;49.466;11.002;2023-07-28T00:58:19;97437.94;;;15.50;94.92
80976;BME280;70437;49.466;11.002;2023-07-28T01:00:47;97446.84;;;15.51;95.09
80976;BME280;70437;49.466;11.002;2023-07-28T01:03:19;97447.13;;;15.49;95.21
80976;BME280;70437;49.466;11.002;2023-07-28T01:08:38;97440.66;;;15.50;95.29
80976;BME280;70437;49.466;11.002;2023-07-28T01:11:09;97438.19;;;15.49;95.46
80976;BME280;70437;49.466;11.002;2023-07-28T01:13:38;97435.25;;;15.45;95.28
80976;BME280;70437;49.466;11.002;2023-07-28T01:16:08;97435.50;;;15.49;95.36
80976;BME280;70437;49.466;11.002;2023-07-28T01:18:36;97436.88;;;15.46;95.39
80976;BME280;70437;49.466;11.002;2023-07-28T01:21:16;97436.88;;;15.51;95.48
80976;BME280;70437;49.466;11.002;2023-07-28T01:26:42;97435.53;;;15.54;94.82
80976;BME280;70437;49.466;11.002;2023-07-28T01:29:11;97432.81;;;15.54;94.77
80976;BME280;70437;49.466;11.002;2023-07-28T01:31:40;97438.47;;;15.52;95.05
80976;BME280;70437;49.466;11.002;2023-07-28T01:34:08;97441.47;;;15.51;95.10
80976;BME280;70437;49.466;11.002;2023-07-28T01:36:36;97436.31;;;15.54;95.04
80976;BME280;70437;49.466;11.002;2023-07-28T01:39:07;97449.28;;;15.52;95.25
80976;BME280;70437;49.466;11.002;2023-07-28T01:41:35;97437.66;;;15.52;95.43
80976;BME280;70437;49.466;11.002;2023-07-28T01:44:07;97431.47;;;15.51;95.68
80976;BME280;70437;49.466;11.002;2023-07-28T01:46:36;97432.28;;;15.52;95.54
80976;BME280;70437;49.466;11.002;2023-07-28T01:49:04;97439.03;;;15.49;95.84
80976;BME280;70437;49.466;11.002;2023-07-28T01:51:34;97443.88;;;15.52;95.64
80976;BME280;70437;49.466;11.002;2023-07-28T01:54:03;97439.03;;;15.49;95.72
80976;BME280;70437;49.466;11.002;2023-07-28T01:56:30;97436.59;;;15.48;95.95
80976;BME280;70437;49.466;11.002;2023-07-28T01:58:59;97441.19;;;15.47;96.16
80976;BME280;70437;49.466;11.002;2023-07-28T02:01:27;97441.47;;;15.46;96.29
80976;BME280;70437;49.466;11.002;2023-07-28T02:03:56;97449.81;;;15.44;96.53
80976;BME280;70437;49.466;11.002;2023-07-28T02:06:26;97438.22;;;15.43;96.66
80976;BME280;70437;49.466;11.002;2023-07-28T02:08:55;97439.31;;;15.42;96.61
80976;BME280;70437;49.466;11.002;2023-07-28T02:11:26;97443.34;;;15.45;96.65
80976;BME280;70437;49.466;11.002;2023-07-28T02:13:55;97445.22;;;15.45;96.68
80976;BME280;70437;49.466;11.002;2023-07-28T02:16:22;97439.84;;;15.39;96.75
80976;BME280;70437;49.466;11.002;2023-07-28T02:18:50;97431.75;;;15.39;97.25
80976;BME280;70437;49.466;11.002;2023-07-28T02:21:21;97436.88;;;15.41;97.34
80976;BME280;70437;49.466;11.002;2023-07-28T02:23:48;97453.31;;;15.39;96.89
80976;BME280;70437;49.466;11.002;2023-07-28T02:26:17;97450.63;;;15.39;97.17
80976;BME280;70437;49.466;11.002;2023-07-28T02:28:46;97448.22;;;15.38;97.42
80976;BME280;70437;49.466;11.002;2023-07-28T02:31:21;97449.00;;;15.38;97.30
80976;BME280;70437;49.466;11.002;2023-07-28T02:33:51;97447.69;;;15.41;97.64
80976;BME280;70437;49.466;11.002;2023-07-28T02:36:22;97455.78;;;15.41;97.70
80976;BME280;70437;49.466;11.002;2023-07-28T02:38:52;97456.59;;;15.41;97.51
80976;BME280;70437;49.466;11.002;2023-07-28T02:41:20;97460.09;;;15.42;97.25
80976;BME280;70437;49.466;11.002;2023-07-28T02:43:49;97463.31;;;15.44;97.20
80976;BME280;70437;49.466;11.002;2023-07-28T02:46:17;97454.97;;;15.46;97.10
80976;BME280;70437;49.466;11.002;2023-07-28T02:48:46;97446.06;;;15.45;97.23
80976;BME280;70437;49.466;11.002;2023-07-28T02:51:17;97453.88;;;15.47;97.27
80976;BME280;70437;49.466;11.002;2023-07-28T02:53:45;97449.81;;;15.44;97.03
80976;BME280;70437;49.466;11.002;2023-07-28T02:56:13;97440.91;;;15.43;97.52
80976;BME280;70437;49.466;11.002;2023-07-28T02:58:45;97436.59;;;15.42;97.50
80976;BME280;70437;49.466;11.002;2023-07-28T03:01:13;97440.38;;;15.47;97.18
80976;BME280;70437;49.466;11.002;2023-07-28T03:03:41;97443.06;;;15.47;97.05
80976;BME280;70437;49.466;11.002;2023-07-28T03:06:10;97452.78;;;15.48;96.91
80976;BME280;70437;49.466;11.002;2023-07-28T03:08:39;97447.38;;;15.48;97.08
80976;BME280;70437;49.466;11.002;2023-07-28T03:11:28;97447.66;;;15.46;97.29
80976;BME280;70437;49.466;11.002;2023-07-28T03:13:56;97453.06;;;15.46;97.38
80976;BME280;70437;49.466;11.002;2023-07-28T03:16:24;97465.75;;;15.51;97.00
80976;BME280;70437;49.466;11.002;2023-07-28T03:18:53;97456.03;;;15.50;97.17
80976;BME280;70437;49.466;11.002;2023-07-28T03:21:23;97458.97;;;15.53;96.79
80976;BME280;70437;49.466;11.002;2023-07-28T03:23:53;97465.22;;;15.54;96.69
80976;BME280;70437;49.466;11.002;2023-07-28T03:26:22;97469.25;;;15.56;96.59
80976;BME280;70437;49.466;11.002;2023-07-28T03:28:50;97466.81;;;15.55;96.75
80976;BME280;70437;49.466;11.002;2023-07-28T03:31:18;97477.06;;;15.58;96.72
80976;BME280;70437;49.466;11.002;2023-07-28T03:33:47;97472.75;;;15.52;96.97
80976;BME280;70437;49.466;11.002;2023-07-28T03:36:14;97473.31;;;15.59;96.51
80976;BME280;70437;49.466;11.002;2023-07-28T03:38:45;97471.13;;;15.61;96.50
80976;BME280;70437;49.466;11.002;2023-07-28T03:41:15;97468.72;;;15.70;96.17
80976;BME280;70437;49.466;11.002;2023-07-28T03:43:43;97473.84;;;15.71;95.69
80976;BME280;70437;49.466;11.002;2023-07-28T03:46:12;97475.50;;;15.67;96.11
80976;BME280;70437;49.466;11.002;2023-07-28T03:48:40;97479.25;;;15.66;95.96
80976;BME280;70437;49.466;11.002;2023-07-28T03:51:08;97463.31;;;15.59;96.08
80976;BME280;70437;49.466;11.002;2023-07-28T03:53:36;97448.19;;;15.58;96.24
80976;BME280;70437;49.466;11.002;2023-07-28T03:56:03;97440.09;;;15.58;96.44
80976;BME280;70437;49.466;11.002;2023-07-28T03:58:33;97451.72;;;15.59;96.48
80976;BME280;70437;49.466;11.002;2023-07-28T04:01:01;97451.72;;;15.59;96.40
80976;BME280;70437;49.466;11.002;2023-07-28T04:03:32;97461.69;;;15.58;96.85
80976;BME280;70437;49.466;11.002;2023-07-28T04:06:10;97464.94;;;15.60;96.58
80976;BME280;70437;49.466;11.002;2023-07-28T04:08:41;97463.03;;;15.61;96.64
80976;BME280;70437;49.466;11.002;2023-07-28T04:11:10;97471.44;;;15.64;96.53
80976;BME280;70437;49.466;11.002;2023-07-28T04:13:40;97468.44;;;15.66;96.49
80976;BME280;70437;49.466;11.002;2023-07-28T04:16:08;97463.59;;;15.63;96.52
80976;BME280;70437;49.466;11.002;2023-07-28T04:18:37;97467.34;;;15.62;96.63
80976;BME280;70437;49.466;11.002;2023-07-28T04:21:07;97471.97;;;15.66;96.56
80976;BME280;70437;49.466;11.002;2023-07-28T04:23:35;97454.41;;;15.69;96.40
80976;BME280;70437;49.466;11.002;2023-07-28T04:26:03;97455.50;;;15.68;96.53
80976;BME280;70437;49.466;11.002;2023-07-28T04:28:34;97458.72;;;15.70;96.32
80976;BME280;70437;49.466;11.002;2023-07-28T04:31:03;97468.72;;;15.70;96.40
80976;BME280;70437;49.466;11.002;2023-07-28T04:33:49;97459.81;;;15.74;96.45
80976;BME280;70437;49.466;11.002;2023-07-28T04:36:21;97471.41;;;15.75;96.35
80976;BME280;70437;49.466;11.002;2023-07-28T04:38:52;97470.06;;;15.77;96.16
80976;BME280;70437;49.466;11.002;2023-07-28T04:41:20;97475.47;;;15.77;96.08
80976;BME280;70437;49.466;11.002;2023-07-28T04:43:55;97462.78;;;15.78;96.20
80976;BME280;70437;49.466;11.002;2023-07-28T04:46:26;97458.97;;;15.79;95.62
80976;BME280;70437;49.466;11.002;2023-07-28T04:48:56;97466.28;;;15.78;95.78
80976;BME280;70437;49.466;11.002;2023-07-28T04:52:06;97458.19;;;15.78;95.60
80976;BME280;70437;49.466;11.002;2023-07-28T04:54:57;97454.38;;;15.79;95.69
80976;BME280;70437;49.466;11.002;2023-07-28T04:57:26;97457.09;;;15.79;95.81
80976;BME280;70437;49.466;11.002;2023-07-28T04:59:57;97457.63;;;15.81;95.58
80976;BME280;70437;49.466;11.002;2023-07-28T05:02:28;97458.44;;;15.87;95.33
80976;BME280;70437;49.466;11.002;2023-07-28T05:04:57;97456.50;;;15.92;94.74
80976;BME280;70437;49.466;11.002;2023-07-28T05:07:26;97464.09;;;15.96;94.93
80976;BME280;70437;49.466;11.002;2023-07-28T05:09:53;97467.06;;;15.94;95.10
80976;BME280;70437;49.466;11.002;2023-07-28T05:12:27;97465.97;;;15.95;95.34
80976;BME280;70437;49.466;11.002;2023-07-28T05:14:55;97470.28;;;16.01;95.11
80976;BME280;70437;49.466;11.002;2023-07-28T05:17:23;97470.53;;;16.05;94.78
80976;BME280;70437;49.466;11.002;2023-07-28T05:20:14;97474.59;;;16.07;94.75
80976;BME280;70437;49.466;11.002;2023-07-28T05:22:54;97471.88;;;16.02;95.18
80976;BME280;70437;49.466;11.002;2023-07-28T05:25:26;97479.72;;;16.04;95.14
80976;BME280;70437;49.466;11.002;2023-07-28T05:27:55;97482.97;;;16.06;95.05
80976;BME280;70437;49.466;11.002;2023-07-28T05:30:25;97480.00;;;16.07;94.75
80976;BME280;70437;49.466;11.002;2023-07-28T05:33:01;97475.13;;;16.04;94.66
80976;BME280;70437;49.466;11.002;2023-07-28T05:36:02;97477.53;;;16.11;94.71
80976;BME280;70437;49.466;11.002;2023-07-28T05:38:33;97479.72;;;16.09;94.78
80976;BME280;70437;49.466;11.002;2023-07-28T05:41:03;97480.53;;;16.09;94.78
80976;BME280;70437;49.466;11.002;2023-07-28T05:43:32;97478.09;;;16.13;94.30
80976;BME280;70437;49.466;11.002;2023-07-28T05:46:02;97479.69;;;16.14;94.60
80976;BME280;70437;49.466;11.002;2023-07-28T05:48:34;97478.59;;;16.15;94.49
80976;BME280;70437;49.466;11.002;2023-07-28T05:51:04;97488.59;;;16.14;94.58
80976;BME280;70437;49.466;11.002;2023-07-28T05:53:35;97495.63;;;16.15;94.47
80976;BME280;70437;49.466;11.002;2023-07-28T05:56:06;97491.31;;;16.14;94.58
80976;BME280;70437;49.466;11.002;2023-07-28T05:58:36;97495.88;;;16.19;94.46
80976;BME280;70437;49.466;11.002;2023-07-28T06:01:06;97492.66;;;16.22;94.39
80976;BME280;70437;49.466;11.002;2023-07-28T06:04:13;97488.03;;;16.23;94.35
80976;BME280;70437;49.466;11.002;2023-07-28T06:06:48;97482.91;;;16.26;93.98
80976;BME280;70437;49.466;11.002;2023-07-28T06:11:06;97493.41;;;16.33;94.16
80976;BME280;70437;49.466;11.002;2023-07-28T06:13:35;97494.50;;;16.32;94.32
80976;BME280;70437;49.466;11.002;2023-07-28T06:16:05;97485.81;;;16.40;93.99
80976;BME280;70437;49.466;11.002;2023-07-28T06:18:37;97495.81;;;16.45;93.26
80976;BME280;70437;49.466;11.002;2023-07-28T06:21:10;97492.28;;;16.49;93.38
80976;BME280;70437;49.466;11.002;2023-07-28T06:23:38;97504.16;;;16.53;93.44
80976;BME280;70437;49.466;11.002;2023-07-28T06:26:07;97500.59;;;16.63;93.29
80976;BME280;70437;49.466;11.002;2023-07-28T06:28:36;97505.69;;;16.69;92.92
80976;BME280;70437;49.466;11.002;2023-07-28T06:31:07;97510.28;;;16.69;92.47
80976;BME280;70437;49.466;11.002;2023-07-28T06:33:36;97504.88;;;16.69;92.50
80976;BME280;70437;49.466;11.002;2023-07-28T06:36:05;97514.88;;;16.68;92.63
80976;BME280;70437;49.466;11.002;2023-07-28T06:38:34;97511.94;;;16.65;92.55
80976;BME280;70437;49.466;11.002;2023-07-28T06:41:02;97511.13;;;16.64;92.84
80976;BME280;70437;49.466;11.002;2023-07-28T06:43:30;97512.75;;;16.65;92.41
80976;BME280;70437;49.466;11.002;2023-07-28T06:46:03;97522.22;;;16.63;92.45
80976;BME280;70437;49.466;11.002;2023-07-28T06:48:32;97527.63;;;16.63;92.52
80976;BME280;70437;49.466;11.002;2023-07-28T06:51:01;97532.75;;;16.64;92.66
80976;BME280;70437;49.466;11.002;2023-07-28T06:53:32;97538.75;;;16.61;93.17
80976;BME280;70437;49.466;11.002;2023-07-28T06:56:01;97529.81;;;16.56;93.98
80976;BME280;70437;49.466;11.002;2023-07-28T06:58:29;97529.84;;;16.51;94.54
80976;BME280;70437;49.466;11.002;2023-07-28T07:00:56;97533.66;;;16.45;94.25
80976;BME280;70437;49.466;11.002;2023-07-28T07:03:25;97529.06;;;16.40;94.81
80976;BME280;70437;49.466;11.002;2023-07-28T07:05:55;97537.44;;;16.43;94.45
80976;BME280;70437;49.466;11.002;2023-07-28T07:08:23;97540.97;;;16.44;94.88
80976;BME280;70437;49.466;11.002;2023-07-28T07:10:52;97542.28;;;16.47;94.32
80976;BME280;70437;49.466;11.002;2023-07-28T07:13:20;97543.63;;;16.54;93.67
80976;BME280;70437;49.466;11.002;2023-07-28T07:15:48;97541.97;;;16.63;93.74
80976;BME280;70437;49.466;11.002;2023-07-28T07:18:19;97546.28;;;16.64;94.04
80976;BME280;70437;49.466;11.002;2023-07-28T07:20:48;97552.50;;;16.70;94.18
80976;BME280;70437;49.466;11.002;2023-07-28T07:23:18;97553.31;;;16.76;94.31
80976;BME280;70437;49.466;11.002;2023-07-28T07:25:49;97555.97;;;16.86;93.33
80976;BME280;70437;49.466;11.002;2023-07-28T07:28:17;97547.81;;;16.91;92.60
80976;BME280;70437;49.466;11.002;2023-07-28T07:30:46;97557.53;;;16.97;92.88
80976;BME280;70437;49.466;11.002;2023-07-28T07:33:16;97563.44;;;17.04;92.07
80976;BME280;70437;49.466;11.002;2023-07-28T07:35:45;97558.44;;;17.27;91.22
80976;BME280;70437;49.466;11.002;2023-07-28T07:38:14;97565.66;;;17.36;90.32
80976;BME280;70437;49.466;11.002;2023-07-28T07:40:43;97567.28;;;17.42;90.50
80976;BME280;70437;49.466;11.002;2023-07-28T07:43:15;97568.94;;;17.38;90.43
80976;BME280;70437;49.466;11.002;2023-07-28T07:45:47;97580.56;;;17.39;90.89
80976;BME280;70437;49.466;11.002;2023-07-28T07:48:17;97576.19;;;17.43;89.71
80976;BME280;70437;49.466;11.002;2023-07-28T07:50:45;97581.50;;;17.58;89.81
80976;BME280;70437;49.466;11.002;2023-07-28T07:53:14;97574.25;;;17.49;89.75
80976;BME280;70437;49.466;11.002;2023-07-28T07:55:42;97578.78;;;17.58;88.91
80976;BME280;70437;49.466;11.002;2023-07-28T07:58:10;97584.28;;;17.48;89.16
80976;BME280;70437;49.466;11.002;2023-07-28T08:00:38;97584.72;;;17.65;89.55
80976;BME280;70437;49.466;11.002;2023-07-28T08:03:07;97581.66;;;17.72;88.41
80976;BME280;70437;49.466;11.002;2023-07-28T08:05:35;97582.16;;;17.84;88.28
80976;BME280;70437;49.466;11.002;2023-07-28T08:08:03;97579.16;;;18.15;88.06
80976;BME280;70437;49.466;11.002;2023-07-28T08:10:33;97575.75;;;18.04;87.71
80976;BME280;70437;49.466;11.002;2023-07-28T08:13:02;97577.81;;;18.12;87.52
80976;BME280;70437;49.466;11.002;2023-07-28T08:15:33;97586.28;;;18.35;86.89
80976;BME280;70437;49.466;11.002;2023-07-28T08:18:01;97580.84;;;18.35;84.96
80976;BME280;70437;49.466;11.002;2023-07-28T08:20:29;97582.50;;;18.36;85.35
80976;BME280;70437;49.466;11.002;2023-07-28T08:22:58;97590.09;;;18.34;85.76
80976;BME280;70437;49.466;11.002;2023-07-28T08:25:26;97586.88;;;18.32;86.75
80976;BME280;70437;49.466;11.002;2023-07-28T08:27:53;97579.09;;;18.49;85.65
80976;BME280;70437;49.466;11.002;2023-07-28T08:30:23;97578.28;;;18.49;84.79
80976;BME280;70437;49.466;11.002;2023-07-28T08:32:55;97585.09;;;18.46;85.33
80976;BME280;70437;49.466;11.002;2023-07-28T08:35:22;97586.00;;;18.60;84.33
80976;BME280;70437;49.466;11.002;2023-07-28T08:37:50;97583.06;;;18.57;84.04
80976;BME280;70437;49.466;11.002;2023-07-28T08:40:19;97595.19;;;18.64;84.26
80976;BME280;70437;49.466;11.002;2023-07-28T08:42:49;97594.28;;;18.50;84.31
80976;BME280;70437;49.466;11.002;2023-07-28T08:45:18;97598.28;;;18.53;85.22
80976;BME280;70437;49.466;11.002;2023-07-28T08:47:47;97595.16;;;18.69;84.07
80976;BME280;70437;49.466;11.002;2023-07-28T08:50:15;97592.38;;;18.75;83.92
80976;BME280;70437;49.466;11.002;2023-07-28T08:52:43;97595.41;;;18.73;84.03
80976;BME280;70437;49.466;11.002;2023-07-28T08:55:12;97597.47;;;18.81;84.29
80976;BME280;70437;49.466;11.002;2023-07-28T08:57:44;97595.97;;;18.70;83.58
80976;BME280;70437;49.466;11.002;2023-07-28T09:00:13;97594.81;;;18.76;83.17
80976;BME280;70437;49.466;11.002;2023-07-28T09:02:42;97589.91;;;18.78;82.54
80976;BME280;70437;49.466;11.002;2023-07-28T09:05:20;97591.81;;;18.78;82.71
80976;BME280;70437;49.466;11.002;2023-07-28T09:07:47;97587.44;;;18.82;82.61
80976;BME280;70437;49.466;11.002;2023-07-28T09:10:16;97601.00;;;18.82;82.63
80976;BME280;70437;49.466;11.002;2023-07-28T09:12:48;97599.94;;;18.78;83.22
80976;BME280;70437;49.466;11.002;2023-07-28T09:15:18;97606.94;;;18.84;82.62
80976;BME280;70437;49.466;11.002;2023-07-28T09:17:46;97603.34;;;18.88;82.66
80976;BME280;70437;49.466;11.002;2023-07-28T09:20:15;97599.78;;;18.93;82.04
80976;BME280;70437;49.466;11.002;2023-07-28T09:22:44;97600.31;;;19.14;80.67
80976;BME280;70437;49.466;11.002;2023-07-28T09:25:16;97605.47;;;19.15;80.31
80976;BME280;70437;49.466;11.002;2023-07-28T09:27:51;97600.19;;;19.43;79.82
80976;BME280;70437;49.466;11.002;2023-07-28T09:30:21;97601.28;;;19.42;78.87
80976;BME280;70437;49.466;11.002;2023-07-28T09:32:55;97609.44;;;19.42;79.03
80976;BME280;70437;49.466;11.002;2023-07-28T09:35:23;97615.38;;;19.44;79.29
80976;BME280;70437;49.466;11.002;2023-07-28T09:37:53;97610.69;;;19.68;78.39
80976;BME280;70437;49.466;11.002;2023-07-28T09:40:22;97618.41;;;19.42;78.50
80976;BME280;70437;49.466;11.002;2023-07-28T09:42:51;97617.16;;;19.35;79.11
80976;BME280;70437;49.466;11.002;2023-07-28T09:45:23;97624.72;;;19.38;79.05
80976;BME280;70437;49.466;11.002;2023-07-28T09:47:56;97615.16;;;19.59;78.32
80976;BME280;70437;49.466;11.002;2023-07-28T09:50:27;97623.47;;;19.49;78.49
80976;BME280;70437;49.466;11.002;2023-07-28T09:53:03;97616.91;;;19.50;77.78
80976;BME280;70437;49.466;11.002;2023-07-28T09:55:33;97623.47;;;19.49;77.88
80976;BME280;70437;49.466;11.002;2023-07-28T09:58:04;97615.75;;;19.37;77.95
80976;BME280;70437;49.466;11.002;2023-07-28T10:00:34;97618.25;;;19.34;78.34
80976;BME280;70437;49.466;11.002;2023-07-28T10:03:03;97623.09;;;19.37;78.87
80976;BME280;70437;49.466;11.002;2023-07-28T10:05:33;97622.78;;;19.19;79.56
80976;BME280;70437;49.466;11.002;2023-07-28T10:08:03;97624.75;;;19.14;79.94
80976;BME280;70437;49.466;11.002;2023-07-28T10:10:35;97626.09;;;19.16;79.70
80976;BME280;70437;49.466;11.002;2023-07-28T10:13:05;97628.91;;;19.06;80.16
80976;BME280;70437;49.466;11.002;2023-07-28T10:15:37;97627.94;;;18.97;79.93
80976;BME280;70437;49.466;11.002;2023-07-28T10:18:06;97630.72;;;18.92;80.86
80976;BME280;70437;49.466;11.002;2023-07-28T10:20:37;97636.75;;;18.89;80.70
80976;BME280;70437;49.466;11.002;2023-07-28T10:23:14;97634.78;;;18.94;80.13
80976;BME280;70437;49.466;11.002;2023-07-28T10:25:44;97630.56;;;19.07;80.19
80976;BME280;70437;49.466;11.002;2023-07-28T10:31:06;97641.28;;;19.55;78.15
80976;BME280;70437;49.466;11.002;2023-07-28T10:33:36;97638.50;;;19.98;76.34
80976;BME280;70437;49.466;11.002;2023-07-28T10:39:02;97638.34;;;20.08;74.51
80976;BME280;70437;49.466;11.002;2023-07-28T10:41:54;97643.19;;;20.11;74.36
80976;BME280;70437;49.466;11.002;2023-07-28T10:44:29;97649.50;;;20.39;73.49
80976;BME280;70437;49.466;11.002;2023-07-28T10:46:58;97639.78;;;20.52;73.05
80976;BME280;70437;49.466;11.002;2023-07-28T10:49:26;97638.22;;;20.65;72.38
80976;BME280;70437;49.466;11.002;2023-07-28T10:51:59;97647.22;;;21.34;70.04
80976;BME280;70437;49.466;11.002;2023-07-28T10:54:28;97652.56;;;21.39;69.51
80976;BME280;70437;49.466;11.002;2023-07-28T10:56:56;97654.94;;;21.27;69.04
80976;BME280;70437;49.466;11.002;2023-07-28T10:59:24;97642.72;;;21.25;69.32
80976;BME280;70437;49.466;11.002;2023-07-28T11:01:52;97649.41;;;21.46;67.34
80976;BME280;70437;49.466;11.002;2023-07-28T11:04:20;97648.19;;;21.52;66.65
80976;BME280;70437;49.466;11.002;2023-07-28T11:06:51;97650.31;;;21.41;66.80
80976;BME280;70437;49.466;11.002;2023-07-28T11:09:22;97652.72;;;21.43;66.42
80976;BME280;70437;49.466;11.002;2023-07-28T11:11:52;97655.53;;;21.24;66.88
80976;BME280;70437;49.466;11.002;2023-07-28T11:14:22;97642.56;;;21.35;66.92
80976;BME280;70437;49.466;11.002;2023-07-28T11:16:52;97648.31;;;21.83;65.15
80976;BME280;70437;49.466;11.002;2023-07-28T11:19:21;97652.94;;;22.05;64.51
80976;BME280;70437;49.466;11.002;2023-07-28T11:21:54;97652.56;;;21.76;65.28
80976;BME280;70437;49.466;11.002;2023-07-28T11:24:22;97652.28;;;22.22;63.54
80976;BME280;70437;49.466;11.002;2023-07-28T11:26:52;97644.91;;;22.85;61.04
80976;BME280;70437;49.466;11.002;2023-07-28T11:29:20;97643.31;;;22.84;61.31
80976;BME280;70437;49.466;11.002;2023-07-28T11:31:51;97657.22;;;21.98;64.92
80976;BME280;70437;49.466;11.002;2023-07-28T11:34:21;97657.47;;;22.55;63.65
80976;BME280;70437;49.466;11.002;2023-07-28T11:36:49;97647.00;;;23.19;61.76
80976;BME280;70437;49.466;11.002;2023-07-28T11:39:19;97658.72;;;22.49;64.68
80976;BME280;70437;49.466;11.002;2023-07-28T11:41:50;97657.66;;;22.36;64.90
80976;BME280;70437;49.466;11.002;2023-07-28T11:44:21;97660.22;;;22.55;63.61
80976;BME280;70437;49.466;11.002;2023-07-28T11:46:49;97654.38;;;22.48;63.94
80976;BME280;70437;49.466;11.002;2023-07-28T11:49:23;97656.66;;;23.25;62.19
80976;BME280;70437;49.466;11.002;2023-07-28T11:51:53;97649.25;;;22.86;61.51
80976;BME280;70437;49.466;11.002;2023-07-28T11:54:23;97649.03;;;22.65;61.99
80976;BME280;70437;49.466;11.002;2023-07-28T11:56:55;97656.09;;;22.66;60.29
80976;BME280;70437;49.466;11.002;2023-07-28T11:59:24;97645.38;;;22.47;61.10
80976;BME280;70437;49.466;11.002;2023-07-28T12:01:58;97647.34;;;22.86;59.15
80976;BME280;70437;49.466;11.002;2023-07-28T12:04:35;97649.19;;;23.83;56.14
80976;BME280;70437;49.466;11.002;2023-07-28T12:07:12;97653.06;;;23.99;56.55
80976;BME280;70437;49.466;11.002;2023-07-28T12:12:29;97656.75;;;23.03;58.93
80976;BME280;70437;49.466;11.002;2023-07-28T12:14:58;97663.84;;;22.73;59.13
80976;BME280;70437;49.466;11.002;2023-07-28T12:17:35;97668.06;;;22.56;59.81
80976;BME280;70437;49.466;11.002;2023-07-28T12:20:09;97657.31;;;23.22;58.09
80976;BME280;70437;49.466;11.002;2023-07-28T12:22:45;97669.16;;;24.27;55.22
80976;BME280;70437;49.466;11.002;2023-07-28T12:25:17;97667.09;;;24.88;52.83
80976;BME280;70437;49.466;11.002;2023-07-28T12:27:44;97666.75;;;25.87;50.89
80976;BME280;70437;49.466;11.002;2023-07-28T12:30:17;97653.56;;;24.91;53.22
80976;BME280;70437;49.466;11.002;2023-07-28T12:32:45;97671.50;;;23.41;57.81
80976;BME280;70437;49.466;11.002;2023-07-28T12:35:17;97669.28;;;23.04;59.39
80976;BME280;70437;49.466;11.002;2023-07-28T12:37:44;97681.06;;;22.51;61.70
80976;BME280;70437;49.466;11.002;2023-07-28T12:40:18;97682.44;;;22.17;63.22
80976;BME280;70437;49.466;11.002;2023-07-28T12:42:53;97671.88;;;22.47;62.42
80976;BME280;70437;49.466;11.002;2023-07-28T12:45:25;97671.03;;;22.37;63.08
80976;BME280;70437;49.466;11.002;2023-07-28T12:48:19;97665.78;;;22.50;63.21
80976;BME280;70437;49.466;11.002;2023-07-28T12:50:48;97653.56;;;22.47;63.27
80976;BME280;70437;49.466;11.002;2023-07-28T12:53:18;97657.53;;;23.03;61.79
80976;BME280;70437;49.466;11.002;2023-07-28T12:55:50;97659.97;;;24.05;58.00
80976;BME280;70437;49.466;11.002;2023-07-28T12:58:22;97659.69;;;24.07;57.54
80976;BME280;70437;49.466;11.002;2023-07-28T13:00:53;97652.06;;;23.60;58.10
80976;BME280;70437;49.466;11.002;2023-07-28T13:03:24;97666.56;;;23.12;59.81
80976;BME280;70437;49.466;11.002;2023-07-28T13:05:52;97676.09;;;22.53;62.03
80976;BME280;70437;49.466;11.002;2023-07-28T13:10:21;97685.41;;;21.43;71.79
80976;BME280;70437;49.466;11.002;2023-07-28T13:12:52;97669.50;;;21.36;71.57
80976;BME280;70437;49.466;11.002;2023-07-28T13:15:22;97660.81;;;21.48;71.16
80976;BME280;70437;49.466;11.002;2023-07-28T13:17:51;97665.44;;;21.34;70.42
80976;BME280;70437;49.466;11.002;2023-07-28T13:20:19;97665.53;;;21.29;70.70
80976;BME280;70437;49.466;11.002;2023-07-28T13:22:47;97665.09;;;21.63;70.30
80976;BME280;70437;49.466;11.002;2023-07-28T13:25:16;97671.19;;;21.82;69.29